createdAt,value
2022-11-29T00:03:14.303Z,10.91
2022-11-29T00:08:17.597Z,10.97
2022-11-29T00:13:22.243Z,10.93
2022-11-29T00:18:25.545Z,10.92
2022-11-29T00:23:28.820Z,10.99
2022-11-29T00:28:33.799Z,11.03
2022-11-29T00:33:37.028Z,10.96
2022-11-29T00:38:40.380Z,11.05
2022-11-29T00:43:45.167Z,10.99
2022-11-29T00:48:48.401Z,10.94
2022-11-29T00:53:51.705Z,10.92
2022-11-29T00:58:56.341Z,10.92
2022-11-29T01:04:01.284Z,10.99
2022-11-29T01:09:05.518Z,10.92
2022-11-29T01:14:10.447Z,10.67
2022-11-29T01:19:13.718Z,10.70
2022-11-29T01:24:17.004Z,10.66
2022-11-29T01:29:21.686Z,10.60
2022-11-29T01:34:24.978Z,10.70
2022-11-29T01:39:28.293Z,10.73
2022-11-29T01:45:06.174Z,10.75
2022-11-29T01:50:11.023Z,10.86
2022-11-29T01:55:14.987Z,10.87
2022-11-29T02:00:21.389Z,10.88
2022-11-29T02:05:26.359Z,10.86
2022-11-29T02:10:45.791Z,10.85
2022-11-29T02:15:58.116Z,10.84
2022-11-29T02:21:28.453Z,10.77
2022-11-29T02:27:01.344Z,10.76
2022-11-29T02:32:41.682Z,10.69
2022-11-29T02:38:03.409Z,10.70
2022-11-29T02:43:29.431Z,10.67
2022-11-29T02:48:52.144Z,10.66
2022-11-29T02:54:01.552Z,10.55
2022-11-29T02:59:12.455Z,10.61
2022-11-29T03:04:27.337Z,10.66
2022-11-29T03:09:38.255Z,10.46
2022-11-29T03:14:50.829Z,10.54
2022-11-29T03:20:07.657Z,10.55
2022-11-29T03:25:19.153Z,10.51
2022-11-29T03:30:23.038Z,10.47
2022-11-29T03:35:37.945Z,10.50
2022-11-29T03:40:47.877Z,10.47
2022-11-29T03:45:57.341Z,10.41
2022-11-29T03:51:07.834Z,10.43
2022-11-29T03:56:27.431Z,10.48
2022-11-29T04:01:56.250Z,10.38
2022-11-29T04:07:16.486Z,10.21
2022-11-29T04:12:46.624Z,10.07
2022-11-29T04:18:16.201Z,9.98
2022-11-29T04:24:05.668Z,10.04
2022-11-29T04:29:20.688Z,10.02
2022-11-29T04:34:47.413Z,9.98
2022-11-29T04:40:25.481Z,9.99
2022-11-29T04:46:00.397Z,9.85
2022-11-29T04:51:22.722Z,9.87
2022-11-29T04:56:35.996Z,9.64
2022-11-29T05:01:51.701Z,9.74
2022-11-29T05:07:03.565Z,9.73
2022-11-29T05:12:16.165Z,9.88
2022-11-29T05:17:34.769Z,9.97
2022-11-29T05:22:49.805Z,9.89
2022-11-29T05:27:59.623Z,9.89
2022-11-29T05:33:19.079Z,9.98
2022-11-29T05:38:40.295Z,9.89
2022-11-29T05:44:01.155Z,9.86
2022-11-29T05:49:18.306Z,10.06
2022-11-29T05:54:30.838Z,9.96
2022-11-29T05:59:39.398Z,9.96
2022-11-29T06:04:58.759Z,9.97
2022-11-29T06:10:05.532Z,10.02
2022-11-29T06:15:39.454Z,9.96
2022-11-29T06:20:58.725Z,9.98
2022-11-29T06:26:19.596Z,10.06
2022-11-29T06:31:29.682Z,9.99
2022-11-29T06:36:37.570Z,10.11
2022-11-29T06:41:40.758Z,10.00
2022-11-29T06:46:49.172Z,9.89
2022-11-29T06:52:07.095Z,9.86
2022-11-29T06:57:18.261Z,9.87
2022-11-29T07:02:35.465Z,9.94
2022-11-29T07:07:39.244Z,10.05
2022-11-29T07:12:43.090Z,9.98
2022-11-29T07:17:58.151Z,9.93
2022-11-29T07:23:07.844Z,10.04
2022-11-29T07:28:22.308Z,9.97
2022-11-29T07:33:35.822Z,9.77
2022-11-29T07:38:54.299Z,9.86
2022-11-29T07:44:04.705Z,9.76
2022-11-29T07:49:11.254Z,9.74
2022-11-29T07:54:19.175Z,9.73
2022-11-29T07:59:22.303Z,9.80
2022-11-29T08:04:26.942Z,9.75
2022-11-29T08:09:30.090Z,9.71
2022-11-29T08:14:33.780Z,9.80
2022-11-29T08:19:38.342Z,9.74
2022-11-29T08:24:41.501Z,9.91
2022-11-29T08:29:44.706Z,10.01
2022-11-29T08:34:49.694Z,10.19
2022-11-29T08:39:52.850Z,10.22
2022-11-29T08:44:55.974Z,10.20
2022-11-29T08:50:03.527Z,10.22
2022-11-29T08:55:07.491Z,10.07
2022-11-29T09:00:12.034Z,10.14
2022-11-29T09:05:16.792Z,10.07
2022-11-29T09:10:20.116Z,9.99
2022-11-29T09:15:23.273Z,9.93
2022-11-29T09:20:27.944Z,10.22
2022-11-29T09:25:31.177Z,10.34
2022-11-29T09:30:36.689Z,10.46
2022-11-29T09:35:41.215Z,10.55
2022-11-29T09:40:52.712Z,10.66
2022-11-29T09:46:03.357Z,10.64
2022-11-29T09:51:20.086Z,10.76
2022-11-29T09:56:29.840Z,10.76
2022-11-29T10:01:38.499Z,10.70
2022-11-29T10:06:47.062Z,10.69
2022-11-29T10:12:02.441Z,10.72
2022-11-29T10:17:08.334Z,10.48
2022-11-29T10:22:18.191Z,10.45
2022-11-29T10:27:25.065Z,10.49
2022-11-29T10:32:33.326Z,10.67
2022-11-29T10:37:38.072Z,10.76
2022-11-29T10:42:50.329Z,10.66
2022-11-29T10:47:55.209Z,10.55
2022-11-29T10:53:06.069Z,10.63
2022-11-29T10:58:15.613Z,10.68
2022-11-29T11:03:25.754Z,10.63
2022-11-29T11:08:31.900Z,10.83
2022-11-29T11:13:36.481Z,11.05
2022-11-29T11:18:39.894Z,11.10
2022-11-29T11:23:53.313Z,11.18
2022-11-29T11:29:00.734Z,11.18
2022-11-29T11:34:30.288Z,11.37
2022-11-29T11:39:34.853Z,11.67
2022-11-29T11:44:49.504Z,11.80
2022-11-29T11:49:57.209Z,11.78
2022-11-29T11:55:05.722Z,11.75
2022-11-29T12:06:15.925Z,12.00
2022-11-29T12:11:21.875Z,12.22
2022-11-29T12:16:29.696Z,12.02
2022-11-29T12:21:38.859Z,12.24
2022-11-29T12:27:00.024Z,12.18
2022-11-29T12:32:19.031Z,12.23
2022-11-29T12:37:27.860Z,12.18
2022-11-29T12:42:42.358Z,12.18
2022-11-29T12:47:56.406Z,12.28
2022-11-29T12:53:11.957Z,12.38
2022-11-29T12:58:26.476Z,12.28
2022-11-29T13:03:38.566Z,12.40
2022-11-29T13:09:14.734Z,12.51
2022-11-29T13:14:42.624Z,12.93
2022-11-29T13:19:51.335Z,14.16
2022-11-29T13:24:58.865Z,15.42
2022-11-29T13:30:05.944Z,15.75
2022-11-29T13:35:19.654Z,16.46
2022-11-29T13:40:32.417Z,16.29
2022-11-29T13:45:41.559Z,15.87
2022-11-29T13:50:46.228Z,15.19
2022-11-29T13:56:00.122Z,14.91
2022-11-29T14:01:09.360Z,14.67
2022-11-29T14:06:18.895Z,14.65
2022-11-29T14:11:25.797Z,14.84
2022-11-29T14:16:35.447Z,15.02
2022-11-29T14:22:31.590Z,15.13
2022-11-29T14:27:58.945Z,15.51
2022-11-29T14:33:11.184Z,15.51
2022-11-29T14:38:20.337Z,15.79
2022-11-29T14:43:27.882Z,16.36
2022-11-29T14:48:34.295Z,16.81
2022-11-29T14:53:39.057Z,17.60
2022-11-29T14:58:42.254Z,18.26
2022-11-29T15:03:50.966Z,18.02
2022-11-29T15:09:05.042Z,17.46
2022-11-29T15:14:17.298Z,17.78
2022-11-29T15:19:51.200Z,17.91
2022-11-29T15:24:56.396Z,17.46
2022-11-29T15:30:00.566Z,17.31
2022-11-29T15:35:06.388Z,17.07
2022-11-29T15:40:14.095Z,16.91
2022-11-29T15:45:39.119Z,16.65
2022-11-29T15:50:46.053Z,16.55
2022-11-29T15:55:51.900Z,16.43
2022-11-29T16:00:56.137Z,16.36
2022-11-29T16:06:07.601Z,16.06
2022-11-29T16:11:17.207Z,15.65
2022-11-29T16:16:23.090Z,15.37
2022-11-29T16:21:29.122Z,14.98
2022-11-29T16:26:36.738Z,14.70
2022-11-29T16:31:39.958Z,14.48
2022-11-29T16:36:44.621Z,14.09
2022-11-29T16:42:03.798Z,13.77
2022-11-29T16:47:12.462Z,13.60
2022-11-29T16:52:27.166Z,13.42
2022-11-29T16:57:31.263Z,13.10
2022-11-29T17:02:34.659Z,12.86
2022-11-29T17:07:41.360Z,12.75
2022-11-29T17:12:48.081Z,12.70
2022-11-29T17:17:51.657Z,12.57
2022-11-29T17:22:56.209Z,12.39
2022-11-29T17:27:59.342Z,12.15
2022-11-29T17:33:02.502Z,12.11
2022-11-29T17:38:07.073Z,11.91
2022-11-29T17:43:10.345Z,11.69
2022-11-29T17:48:13.493Z,11.75
2022-11-29T17:53:18.054Z,11.80
2022-11-29T17:58:21.183Z,11.81
2022-11-29T18:03:24.303Z,11.77
2022-11-29T18:08:29.206Z,11.78
2022-11-29T18:13:32.349Z,11.67
2022-11-29T18:18:36.365Z,11.70
2022-11-29T18:23:44.037Z,11.51
2022-11-29T18:28:48.035Z,11.56
2022-11-29T18:33:53.758Z,11.42
2022-11-29T18:39:00.262Z,11.42
2022-11-29T18:44:05.775Z,11.45
2022-11-29T18:49:12.092Z,11.29
2022-11-29T18:54:18.752Z,11.16
2022-11-29T18:59:23.102Z,11.15
2022-11-29T19:04:26.284Z,11.15
2022-11-29T19:09:30.817Z,11.23
2022-11-29T19:14:34.101Z,10.99
2022-11-29T19:19:37.224Z,10.88
2022-11-29T19:24:41.789Z,10.93
2022-11-29T19:29:44.936Z,10.86
2022-11-29T19:34:48.054Z,10.96
2022-11-29T19:39:52.987Z,10.98
2022-11-29T19:50:19.625Z,10.78
2022-11-29T19:55:24.189Z,10.78
2022-11-29T20:00:28.348Z,10.76
2022-11-29T20:05:31.497Z,10.66
2022-11-29T20:10:36.177Z,10.58
2022-11-29T20:15:39.353Z,10.45
2022-11-29T20:20:42.553Z,10.40
2022-11-29T20:25:51.554Z,10.39
2022-11-29T20:30:55.165Z,10.29
2022-11-29T20:36:07.106Z,10.23
2022-11-29T20:41:16.589Z,10.09
2022-11-29T20:46:20.219Z,10.07
2022-11-29T20:51:28.386Z,9.81
2022-11-29T20:56:32.931Z,9.88
2022-11-29T21:01:36.112Z,9.91
2022-11-29T21:06:39.798Z,9.84
2022-11-29T21:11:44.807Z,9.81
2022-11-29T21:16:48.478Z,9.73
2022-11-29T21:22:04.376Z,9.65
2022-11-29T21:27:14.809Z,9.66
2022-11-29T21:32:23.213Z,9.59
2022-11-29T21:37:29.345Z,9.61
2022-11-29T21:42:33.909Z,9.60
2022-11-29T21:47:37.106Z,9.59
2022-11-29T21:52:40.262Z,9.51
2022-11-29T21:57:44.782Z,9.54
2022-11-29T22:02:47.988Z,9.56
2022-11-29T22:07:51.150Z,9.59
2022-11-29T22:12:55.729Z,9.48
2022-11-29T22:17:58.955Z,9.38
2022-11-29T22:23:02.249Z,9.30
2022-11-29T22:28:06.897Z,9.24
2022-11-29T22:33:13.336Z,9.32
2022-11-29T22:38:16.783Z,9.25
2022-11-29T22:43:21.346Z,9.18
2022-11-29T22:48:24.505Z,9.12
2022-11-29T22:53:27.658Z,9.28
2022-11-29T22:58:32.255Z,9.21
2022-11-29T23:03:36.799Z,9.06
2022-11-29T23:08:40.864Z,8.97
2022-11-29T23:13:45.710Z,9.03
2022-11-29T23:18:49.438Z,9.20
2022-11-29T23:23:56.281Z,9.15
2022-11-29T23:29:01.266Z,8.98
2022-11-29T23:34:04.878Z,8.83
2022-11-29T23:39:08.372Z,8.80
2022-11-29T23:44:12.915Z,8.72
2022-11-29T23:49:16.071Z,8.56
2022-11-29T23:54:19.249Z,8.55
2022-11-29T23:59:23.803Z,8.53
